Time;durP1;ratioP1;P1;durP2;ratioP2;P2;SDS_P1;SDS_P2;PMS_P1;PMS_P2;Temp;Humidity;BMP_temperature;BMP_pressure;BME280_temperature;BME280_humidity;BME280_pressure;Samples;Min_cycle;Max_cycle;Signal;HPM_P1;HPM_P2
2021/03/30 00:05:42;;;;;;;51.68;28.50;;;;;;;8.77;82.32;100429.64;4270560;82;21196;-89
2021/03/30 00:11:44;;;;;;;76.70;38.05;;;;;;;8.80;82.43;100425.67;4285315;81;21656;-90
2021/03/30 00:17:45;;;;;;;71.42;30.27;;;;;;;8.79;82.77;100426.81;4287004;81;21213;-89
2021/03/30 00:23:49;;;;;;;56.83;28.02;;;;;;;8.73;82.86;100416.39;4285492;81;21178;-90
2021/03/30 00:29:50;;;;;;;53.52;27.50;;;;;;;8.70;83.33;100412.41;4283058;81;21347;-89
2021/03/30 00:35:52;;;;;;;40.85;22.93;;;;;;;8.71;83.37;100411.27;4281357;82;21136;-89
2021/03/30 00:41:54;;;;;;;39.20;22.45;;;;;;;8.70;83.67;100402.84;4184685;83;21220;-89
2021/03/30 00:47:57;;;;;;;40.75;22.82;;;;;;;8.71;83.67;100401.71;4219138;83;21188;-89
2021/03/30 00:53:59;;;;;;;31.85;20.52;;;;;;;8.76;83.94;100396.63;4294915;81;21220;-89
2021/03/30 01:00:12;;;;;;;34.33;21.10;;;;;;;8.65;84.04;100392.66;4214981;82;21225;-88
2021/03/30 01:06:15;;;;;;;28.70;17.55;;;;;;;8.67;84.25;100394.51;4247693;84;21225;-89
2021/03/30 01:12:46;;;;;;;32.73;18.75;;;;;;;8.73;84.40;100383.08;4247993;84;21198;-88
2021/03/30 01:18:56;;;;;;;27.00;16.42;;;;;;;8.83;84.21;100386.00;4242586;83;21282;-89
2021/03/30 01:25:00;;;;;;;25.12;16.12;;;;;;;8.80;84.15;100387.44;4248380;83;21185;-90
2021/03/30 01:31:02;;;;;;;31.33;16.17;;;;;;;8.82;83.89;100386.55;4244339;83;21185;-89
2021/03/30 01:37:07;;;;;;;27.17;15.13;;;;;;;8.83;83.96;100391.46;4228032;83;21219;-89
2021/03/30 01:43:11;;;;;;;25.55;14.60;;;;;;;8.83;84.31;100399.66;4260414;81;21684;-90
2021/03/30 01:49:15;;;;;;;25.23;15.30;;;;;;;8.83;84.23;100397.70;4308854;82;21642;-88
2021/03/30 01:55:19;;;;;;;24.85;14.18;;;;;;;8.79;84.12;100396.77;4245188;83;21229;-89
2021/03/30 02:01:24;;;;;;;27.02;14.78;;;;;;;8.70;84.29;100382.38;4290439;82;21211;-88
2021/03/30 02:07:29;;;;;;;29.75;16.35;;;;;;;8.69;84.61;100382.12;4328609;82;21642;-89
2021/03/30 02:20:08;;;;;;;26.93;15.28;;;;;;;8.74;85.03;100372.38;4221923;83;21355;-90
2021/03/30 02:26:13;;;;;;;22.62;13.48;;;;;;;8.78;84.94;100373.34;4266990;82;21381;-90
2021/03/30 02:32:18;;;;;;;24.70;14.30;;;;;;;8.78;84.69;100370.61;4303770;82;21240;-89
2021/03/30 02:38:21;;;;;;;24.80;13.98;;;;;;;8.76;84.65;100366.59;4303740;82;21165;-89
2021/03/30 02:44:26;;;;;;;22.17;14.00;;;;;;;8.77;84.95;100355.92;4227449;83;21149;-89
2021/03/30 02:50:30;;;;;;;26.42;15.10;;;;;;;8.79;85.15;100357.19;4314857;82;21713;-89
2021/03/30 02:56:32;;;;;;;27.55;14.93;;;;;;;8.80;84.94;100360.14;4303203;82;21202;-89
2021/03/30 03:02:36;;;;;;;26.12;13.58;;;;;;;8.85;85.00;100352.31;4356204;81;21624;-89
2021/03/30 03:08:40;;;;;;;22.65;13.25;;;;;;;8.87;85.06;100346.78;4237816;81;32023;-90
2021/03/30 03:14:45;;;;;;;21.57;13.50;;;;;;;8.90;85.33;100347.48;4140092;85;21176;-90
2021/03/30 03:20:48;;;;;;;19.23;12.68;;;;;;;8.86;85.62;100343.02;4117632;86;21744;-89
2021/03/30 03:26:50;;;;;;;26.52;14.10;;;;;;;8.86;85.85;100337.00;4143986;86;21200;-90
2021/03/30 03:32:51;;;;;;;26.35;15.63;;;;;;;8.96;85.91;100339.33;4142065;85;21206;-90
2021/03/30 03:38:53;;;;;;;22.07;13.20;;;;;;;8.96;85.51;100336.59;4111968;86;21211;-90
2021/03/30 03:44:54;;;;;;;21.40;13.20;;;;;;;8.89;85.64;100325.41;4033094;87;21328;-88
2021/03/30 03:51:01;;;;;;;16.07;11.18;;;;;;;8.77;85.80;100329.41;4058294;87;21225;-90
2021/03/30 03:57:17;;;;;;;16.25;11.03;;;;;;;8.74;86.05;100334.16;4059618;87;22410;-89
2021/03/30 04:03:43;;;;;;;17.97;12.13;;;;;;;8.80;86.15;100326.59;4102482;86;21254;-89
2021/03/30 04:09:50;;;;;;;18.00;11.38;;;;;;;8.64;86.60;100326.37;4051890;85;32589;-89
2021/03/30 04:15:53;;;;;;;18.23;12.40;;;;;;;8.70;86.62;100333.79;4109455;85;21338;-92
2021/03/30 04:21:54;;;;;;;18.27;11.45;;;;;;;8.85;86.99;100330.47;4098726;85;21137;-90
2021/03/30 04:27:56;;;;;;;24.32;14.03;;;;;;;8.90;86.58;100333.83;4114881;85;21195;-88
2021/03/30 04:33:58;;;;;;;24.55;11.38;;;;;;;8.92;86.83;100337.03;4095781;85;21434;-89
2021/03/30 04:40:00;;;;;;;20.17;10.38;;;;;;;8.95;86.33;100337.73;4084313;86;21232;-89
2021/03/30 04:46:01;;;;;;;14.50;10.63;;;;;;;9.04;86.01;100345.84;4036572;87;21405;-91
2021/03/30 04:52:04;;;;;;;19.25;12.28;;;;;;;8.95;86.42;100341.83;4040038;87;21814;-91
2021/03/30 04:58:08;;;;;;;21.65;13.13;;;;;;;8.93;86.83;100345.45;4074937;86;21231;-88
2021/03/30 05:04:09;;;;;;;22.00;12.68;;;;;;;8.95;87.02;100347.30;4097272;86;21664;-90
2021/03/30 05:10:12;;;;;;;17.80;12.20;;;;;;;8.95;86.99;100347.30;4070325;86;21318;-90
2021/03/30 05:16:14;;;;;;;19.70;12.55;;;;;;;9.03;87.10;100348.36;4048518;87;21225;-89
2021/03/30 05:22:16;;;;;;;22.15;14.55;;;;;;;9.13;87.08;100351.48;4182150;84;21227;-88
2021/03/30 05:28:17;;;;;;;23.57;13.62;;;;;;;9.18;87.01;100351.30;4186003;84;21197;-89
2021/03/30 05:34:19;;;;;;;22.93;13.80;;;;;;;9.25;86.80;100354.87;4189265;84;21224;-89
2021/03/30 05:40:21;;;;;;;18.80;12.65;;;;;;;9.32;86.81;100356.48;4181722;84;22537;-90
2021/03/30 05:46:23;;;;;;;22.37;13.98;;;;;;;9.33;86.92;100358.88;4173052;84;21416;-88
2021/03/30 05:52:31;;;;;;;23.77;14.93;;;;;;;9.43;87.17;100360.41;4171930;84;21133;-89
2021/03/30 05:58:34;;;;;;;23.80;14.13;;;;;;;9.49;87.53;100368.64;4160694;84;21353;-89
2021/03/30 06:04:37;;;;;;;20.97;14.60;;;;;;;9.57;87.21;100370.51;4163151;84;21256;-90
2021/03/30 06:10:39;;;;;;;24.07;15.88;;;;;;;9.65;87.09;100375.69;4164562;84;21577;-88
2021/03/30 06:16:41;;;;;;;28.07;16.27;;;;;;;9.70;87.25;100385.84;4160951;84;21192;-89
2021/03/30 06:22:53;;;;;;;31.20;19.82;;;;;;;9.76;87.34;100383.13;4137762;85;21436;-89
2021/03/30 06:28:55;;;;;;;29.37;18.98;;;;;;;9.76;87.20;100392.70;4060684;86;21246;-89
2021/03/30 06:35:14;;;;;;;29.95;19.30;;;;;;;9.83;87.48;100396.27;4066048;87;21280;-90
2021/03/30 06:41:43;;;;;;;40.38;26.95;;;;;;;9.88;87.32;100391.95;4064670;87;21233;-90
2021/03/30 06:47:46;;;;;;;35.13;21.33;;;;;;;9.85;87.42;100407.08;4139772;83;21169;-88
2021/03/30 06:53:50;;;;;;;38.38;25.68;;;;;;;9.89;86.91;100413.50;4079314;84;33766;-89
2021/03/30 06:59:52;;;;;;;40.65;28.30;;;;;;;9.98;87.26;100411.47;3970491;89;21210;-90
2021/03/30 07:05:55;;;;;;;37.33;24.77;;;;;;;10.04;87.46;100416.19;3964239;89;21262;-89
2021/03/30 07:11:57;;;;;;;37.38;26.70;;;;;;;10.02;87.60;100419.81;3971861;89;21205;-89
2021/03/30 07:18:22;;;;;;;37.80;24.72;;;;;;;10.02;87.58;100429.39;4070528;87;22100;-89
2021/03/30 07:24:27;;;;;;;33.45;20.05;;;;;;;10.09;87.60;100423.63;4064986;87;21397;-90
2021/03/30 07:30:30;;;;;;;38.28;20.12;;;;;;;10.11;87.64;100426.02;3971879;89;21833;-90
2021/03/30 07:36:54;;;;;;;43.48;23.77;;;;;;;10.14;87.47;100433.55;4038274;87;22131;-91
2021/03/30 07:43:07;;;;;;;32.73;21.95;;;;;;;10.26;87.59;100441.23;4542791;75;28620;-89
2021/03/30 07:49:11;;;;;;;33.58;22.67;;;;;;;10.50;87.49;100437.20;4488795;78;21183;-90
2021/03/30 07:55:21;;;;;;;44.70;27.13;;;;;;;10.60;87.24;100439.48;4490374;78;21668;-89
2021/03/30 08:01:30;;;;;;;45.50;26.68;;;;;;;10.70;87.46;100435.50;4492458;78;21219;-89
2021/03/30 08:07:48;;;;;;;41.45;26.40;;;;;;;10.75;87.33;100438.83;4485069;78;21180;-91
2021/03/30 08:13:53;;;;;;;36.88;22.40;;;;;;;10.91;87.61;100444.43;4491711;78;21188;-88
2021/03/30 08:20:05;;;;;;;31.17;19.25;;;;;;;10.96;87.32;100440.09;4491354;78;21160;-89
2021/03/30 08:26:25;;;;;;;31.25;19.73;;;;;;;11.04;87.46;100437.79;4485430;78;21735;-88
2021/03/30 08:32:29;;;;;;;39.63;24.12;;;;;;;10.95;87.60;100431.63;4315093;78;43487;-88
2021/03/30 08:38:46;;;;;;;41.80;24.20;;;;;;;10.97;88.07;100443.06;4258893;81;21167;-89
2021/03/30 08:44:58;;;;;;;37.65;24.60;;;;;;;11.30;88.13;100436.87;4270211;82;22424;-92
2021/03/30 08:51:04;;;;;;;39.45;22.98;;;;;;;11.76;88.11;100430.84;4269975;81;21730;-89
2021/03/30 08:57:11;;;;;;;35.95;20.27;;;;;;;12.27;87.89;100434.06;4284344;80;21196;-89
2021/03/30 09:03:20;;;;;;;37.25;21.90;;;;;;;12.62;87.03;100421.84;4269478;81;21699;-89
2021/03/30 09:09:24;;;;;;;36.98;20.65;;;;;;;12.83;86.63;100428.41;4245324;81;21175;-89
2021/03/30 09:15:26;;;;;;;38.67;21.42;;;;;;;13.03;86.54;100420.52;4247129;82;21734;-90
2021/03/30 09:21:28;;;;;;;34.38;23.67;;;;;;;13.20;86.12;100427.00;4239848;83;21212;-89
2021/03/30 09:27:34;;;;;;;36.93;23.38;;;;;;;13.30;85.99;100431.94;4209958;82;29795;-89
2021/03/30 09:33:38;;;;;;;36.73;24.80;;;;;;;13.42;85.38;100443.61;4311548;81;59102;-88
2021/03/30 09:39:41;;;;;;;39.40;24.90;;;;;;;13.44;85.22;100431.69;4204998;83;22429;-92
2021/03/30 09:45:45;;;;;;;42.03;26.87;;;;;;;13.57;84.89;100432.36;4195366;83;21212;-90
2021/03/30 09:51:47;;;;;;;41.63;24.30;;;;;;;13.51;84.55;100447.55;4184121;84;21656;-90
2021/03/30 09:58:04;;;;;;;40.88;25.85;;;;;;;13.37;84.33;100443.11;4188766;83;21213;-90
2021/03/30 10:04:06;;;;;;;50.25;29.15;;;;;;;13.28;84.74;100437.02;4192141;83;21223;-90
2021/03/30 10:10:15;;;;;;;40.55;26.57;;;;;;;13.24;84.52;100440.24;4188020;83;21240;-90
2021/03/30 10:16:19;;;;;;;48.17;28.20;;;;;;;13.22;84.90;100437.85;4193616;83;21534;-91
2021/03/30 10:22:32;;;;;;;49.35;32.15;;;;;;;13.42;84.88;100432.61;4187854;83;21797;-90
2021/03/30 10:28:34;;;;;;;48.33;31.40;;;;;;;13.54;84.89;100426.20;4242093;80;41894;-90
2021/03/30 10:34:36;;;;;;;48.05;29.48;;;;;;;13.69;84.62;100426.71;4363369;79;37889;-89
2021/03/30 10:40:41;;;;;;;54.90;33.48;;;;;;;13.87;84.30;100423.20;4180144;84;21671;-90
2021/03/30 10:46:49;;;;;;;49.93;32.65;;;;;;;13.90;83.69;100432.67;4183001;83;21806;-89
2021/03/30 10:52:51;;;;;;;44.48;29.95;;;;;;;13.85;83.31;100432.95;4177850;83;21344;-89
2021/03/30 10:58:52;;;;;;;54.40;32.85;;;;;;;13.80;83.45;100425.78;4192732;83;21189;-90
2021/03/30 11:04:54;;;;;;;55.45;36.95;;;;;;;13.75;83.54;100423.92;4191720;83;21376;-90
2021/03/30 11:10:55;;;;;;;48.65;33.83;;;;;;;13.66;83.70;100428.24;4183064;83;21240;-91
2021/03/30 11:16:57;;;;;;;51.25;33.28;;;;;;;13.57;83.56;100429.03;4180897;83;21429;-90
2021/03/30 11:23:00;;;;;;;57.00;35.48;;;;;;;13.55;83.72;100418.96;4186286;83;21330;-91
2021/03/30 11:29:02;;;;;;;50.58;33.80;;;;;;;13.37;83.96;100421.92;4182151;84;21518;-89
2021/03/30 11:35:23;;;;;;;57.80;35.45;;;;;;;13.37;84.04;100408.73;4191743;83;21220;-90
2021/03/30 11:41:26;;;;;;;53.50;32.75;;;;;;;13.30;84.24;100407.19;4186217;83;21304;-90
2021/03/30 11:47:28;;;;;;;45.25;28.00;;;;;;;13.34;84.22;100399.23;4192424;83;21164;-90
2021/03/30 11:53:30;;;;;;;51.63;29.00;;;;;;;13.56;84.19;100395.01;4199558;83;21374;-89
2021/03/30 11:59:31;;;;;;;49.75;27.98;;;;;;;13.70;83.76;100389.20;4191671;83;21321;-89
2021/03/30 12:05:33;;;;;;;37.75;23.35;;;;;;;13.95;83.46;100378.70;4195981;83;21244;-90
2021/03/30 12:11:35;;;;;;;41.65;23.90;;;;;;;14.15;82.63;100372.00;4200783;83;21191;-90
2021/03/30 12:17:40;;;;;;;44.33;25.68;;;;;;;14.21;80.98;100367.78;4196044;83;21664;-91
2021/03/30 12:23:43;;;;;;;37.85;24.95;;;;;;;14.26;80.56;100359.25;4193308;83;21239;-90
2021/03/30 12:29:44;;;;;;;36.85;24.95;;;;;;;14.54;80.64;100352.05;4185009;83;21248;-91
2021/03/30 12:35:46;;;;;;;39.00;24.32;;;;;;;14.73;80.04;100348.64;4240684;83;31153;-91
2021/03/30 12:41:48;;;;;;;42.13;25.00;;;;;;;14.87;78.86;100350.23;4273679;82;21720;-90
2021/03/30 12:47:50;;;;;;;32.80;21.30;;;;;;;15.01;78.86;100346.31;4245682;82;21209;-91
2021/03/30 12:53:55;;;;;;;36.08;22.05;;;;;;;15.19;78.56;100336.31;4262367;82;21162;-90
2021/03/30 12:59:55;;;;;;;39.23;20.52;;;;;;;15.35;78.10;100328.66;4259763;82;21659;-91
2021/03/30 13:05:56;;;;;;;34.20;20.57;;;;;;;15.63;77.72;100329.03;4272521;82;21195;-93
2021/03/30 13:11:58;;;;;;;32.55;19.12;;;;;;;15.97;76.80;100322.92;4273323;82;21175;-91
2021/03/30 13:18:00;;;;;;;31.95;19.92;;;;;;;16.18;76.51;100317.59;4260788;82;21214;-91
2021/03/30 13:24:05;;;;;;;34.25;20.25;;;;;;;16.07;74.43;100307.63;4263089;82;21231;-91
2021/03/30 13:30:08;;;;;;;36.00;20.35;;;;;;;16.03;73.39;100308.16;4226975;82;53403;-91
2021/03/30 13:36:10;;;;;;;32.20;19.40;;;;;;;16.01;72.39;100301.64;4216342;83;21200;-93
2021/03/30 13:42:14;;;;;;;34.75;18.85;;;;;;;16.09;73.62;100299.73;4196010;83;21197;-92
2021/03/30 13:48:16;;;;;;;32.58;18.92;;;;;;;16.29;72.81;100305.24;4161496;84;21183;-91
2021/03/30 13:54:21;;;;;;;32.73;18.35;;;;;;;16.24;72.04;100284.29;4159106;84;21208;-91
2021/03/30 14:00:25;;;;;;;34.43;20.15;;;;;;;16.21;71.37;100286.44;4109882;83;80912;-91
2021/03/30 14:06:27;;;;;;;33.33;19.62;;;;;;;16.32;71.79;100287.93;3993985;87;21372;-92
2021/03/30 14:29:31;;;;;;;33.45;18.35;;;;;;;16.75;67.56;100263.59;4501271;74;22324;-91
2021/03/30 14:35:33;;;;;;;31.23;18.32;;;;;;;16.66;66.76;100261.76;4344154;80;21168;-92
2021/03/30 14:41:46;;;;;;;30.80;17.77;;;;;;;16.61;67.23;100254.63;4360622;80;21223;-92
2021/03/30 14:54:08;;;;;;;31.15;18.23;;;;;;;16.80;63.44;100249.41;4129422;84;21902;-92
2021/03/30 15:06:26;;;;;;;25.15;16.52;;;;;;;16.76;65.80;100238.31;4062653;85;21259;-92
2021/03/30 15:12:28;;;;;;;33.55;16.27;;;;;;;16.84;66.96;100226.12;4092520;84;21391;-92
2021/03/30 15:18:30;;;;;;;21.87;14.68;;;;;;;16.94;67.12;100227.36;4017070;86;21244;-93
2021/03/30 15:24:35;;;;;;;28.45;16.32;;;;;;;16.94;66.53;100215.68;4131305;83;21282;-91
2021/03/30 15:30:37;;;;;;;30.60;15.95;;;;;;;16.77;65.84;100212.84;4129237;84;21752;-93
2021/03/30 15:36:39;;;;;;;28.23;16.07;;;;;;;16.58;66.02;100216.70;4139828;84;21238;-93
2021/03/30 15:42:43;;;;;;;30.40;16.27;;;;;;;16.36;66.28;100207.22;4134592;83;21652;-92
2021/03/30 15:48:47;;;;;;;27.27;15.05;;;;;;;16.13;66.00;100202.52;3997000;87;21379;-93
2021/03/30 15:54:55;;;;;;;31.90;13.98;;;;;;;15.93;66.03;100207.47;4130865;84;21250;-93
2021/03/30 16:00:52;;;;;;;29.42;14.87;;;;;;;15.90;66.22;100198.56;4144925;84;21194;-93
2021/03/30 16:06:54;;;;;;;28.40;15.05;;;;;;;15.91;66.35;100201.52;4153425;84;21375;-92
2021/03/30 16:12:55;;;;;;;28.75;16.80;;;;;;;15.89;66.49;100190.09;4143527;84;21206;-94
2021/03/30 16:18:57;;;;;;;42.85;17.07;;;;;;;15.82;66.39;100190.62;4148652;84;21203;-93
2021/03/30 16:24:59;;;;;;;33.90;16.40;;;;;;;15.72;66.63;100188.55;4141940;84;21238;-92
2021/03/30 16:31:01;;;;;;;35.38;16.42;;;;;;;15.65;66.93;100194.20;4131008;84;21261;-94
2021/03/30 16:37:06;;;;;;;35.08;16.37;;;;;;;15.53;66.97;100193.08;4126820;84;21351;-92
2021/03/30 16:43:07;;;;;;;38.35;18.60;;;;;;;15.35;67.29;100187.95;4143873;83;21433;-93
2021/03/30 16:49:12;;;;;;;41.23;21.50;;;;;;;15.20;67.76;100195.06;4131638;84;21224;-93
2021/03/30 16:55:17;;;;;;;45.78;23.10;;;;;;;15.06;67.64;100201.22;4137603;84;21782;-93
2021/03/30 17:01:20;;;;;;;51.58;23.95;;;;;;;14.78;67.65;100205.00;4132021;84;21256;-93
2021/03/30 17:07:22;;;;;;;48.30;23.67;;;;;;;14.54;68.03;100196.37;4144677;84;21257;-93
2021/03/30 17:13:25;;;;;;;54.35;27.45;;;;;;;14.38;68.43;100193.78;4141900;84;21761;-92
2021/03/30 17:19:26;;;;;;;47.73;26.33;;;;;;;14.27;68.73;100200.31;4134470;82;21261;-92
2021/03/30 17:25:28;;;;;;;51.23;26.57;;;;;;;14.08;69.07;100205.27;4135242;84;21290;-93
2021/03/30 17:31:30;;;;;;;54.05;27.80;;;;;;;13.90;69.37;100205.01;4147347;84;21382;-93
2021/03/30 17:37:37;;;;;;;72.50;34.15;;;;;;;13.64;69.83;100202.77;4010427;86;21845;-92
2021/03/30 17:43:39;;;;;;;56.15;27.77;;;;;;;13.38;70.25;100211.72;4041136;85;21387;-94
2021/03/30 17:49:41;;;;;;;71.95;38.33;;;;;;;13.06;70.60;100208.13;4083926;84;21244;-92
2021/03/30 17:55:43;;;;;;;109.25;52.23;;;;;;;12.79;71.19;100216.77;4093083;84;21163;-93
2021/03/30 18:01:45;;;;;;;285.50;164.30;;;;;;;12.64;71.53;100219.77;4013344;87;21248;-93
2021/03/30 18:07:47;;;;;;;131.18;70.40;;;;;;;12.32;71.84;100216.86;4072216;84;21255;-92
2021/03/30 18:13:48;;;;;;;294.00;151.20;;;;;;;12.04;72.31;100218.16;4153521;84;21506;-93
2021/03/30 18:19:53;;;;;;;229.18;134.55;;;;;;;11.86;72.88;100225.14;4136164;84;21281;-93
2021/03/30 18:25:57;;;;;;;120.30;68.25;;;;;;;11.72;73.33;100224.78;4140453;84;21236;-91
2021/03/30 18:32:00;;;;;;;91.30;54.55;;;;;;;11.63;73.76;100221.41;4139346;84;21248;-94
2021/03/30 18:38:03;;;;;;;54.27;32.95;;;;;;;11.61;74.00;100226.41;4132863;84;21217;-91
2021/03/30 18:44:06;;;;;;;55.23;33.05;;;;;;;11.51;73.80;100234.58;4131070;83;22301;-92
2021/03/30 18:50:10;;;;;;;57.48;34.60;;;;;;;11.13;74.33;100230.20;4040485;87;21241;-93
2021/03/30 18:56:15;;;;;;;52.62;32.28;;;;;;;10.99;74.96;100231.95;3977449;87;21561;-92
2021/03/30 19:02:18;;;;;;;53.08;33.85;;;;;;;10.90;75.21;100229.12;4084979;84;21341;-92
2021/03/30 19:08:20;;;;;;;57.30;32.13;;;;;;;10.69;75.25;100225.22;4029718;86;21288;-91
2021/03/30 19:14:22;;;;;;;55.70;33.98;;;;;;;10.53;75.82;100227.63;4025024;86;21248;-93
2021/03/30 19:20:24;;;;;;;53.65;31.82;;;;;;;10.41;76.10;100227.09;4007484;87;21336;-93
2021/03/30 19:26:26;;;;;;;50.50;30.90;;;;;;;10.26;76.31;100223.66;4083934;85;21455;-93
2021/03/30 19:32:31;;;;;;;68.10;38.30;;;;;;;10.10;76.49;100217.86;3991601;87;21211;-92
2021/03/30 19:38:31;;;;;;;59.10;32.95;;;;;;;9.95;77.03;100223.41;3984216;87;21338;-93
2021/03/30 19:44:34;;;;;;;69.40;35.75;;;;;;;9.75;77.15;100220.76;4131659;84;21361;-93
2021/03/30 19:50:35;;;;;;;58.42;34.98;;;;;;;9.66;77.71;100216.77;4129749;84;21382;-92
2021/03/30 19:56:37;;;;;;;72.87;42.58;;;;;;;9.55;77.66;100212.88;4142996;84;21236;-91
2021/03/30 20:02:40;;;;;;;69.27;37.15;;;;;;;9.36;78.01;100220.20;4145036;84;21652;-91
2021/03/30 20:08:44;;;;;;;66.53;36.68;;;;;;;9.19;78.14;100217.64;4137514;84;21220;-92
2021/03/30 20:14:45;;;;;;;57.50;33.35;;;;;;;9.02;78.52;100211.57;4000246;87;21233;-93
2021/03/30 20:20:47;;;;;;;73.55;41.28;;;;;;;9.05;79.04;100214.99;4141591;84;21707;-92
2021/03/30 20:26:49;;;;;;;67.32;37.73;;;;;;;9.00;78.73;100209.73;4136602;84;21844;-93
2021/03/30 20:32:51;;;;;;;65.47;39.33;;;;;;;8.77;78.99;100212.59;4117340;84;21248;-94
2021/03/30 20:38:53;;;;;;;77.00;42.03;;;;;;;8.64;79.40;100210.91;4116703;84;21386;-91
2021/03/30 20:44:55;;;;;;;87.30;46.02;;;;;;;8.57;79.35;100204.62;4133739;84;21259;-91
2021/03/30 20:50:58;;;;;;;86.67;48.80;;;;;;;8.44;79.61;100213.84;4149669;84;21375;-91
2021/03/30 20:57:00;;;;;;;78.52;43.90;;;;;;;8.36;79.74;100208.46;4149077;84;21228;-91
2021/03/30 21:03:02;;;;;;;86.55;43.80;;;;;;;8.15;79.90;100202.13;4153605;84;21244;-92
2021/03/30 21:09:04;;;;;;;71.57;41.48;;;;;;;7.98;80.20;100198.95;4137699;84;21243;-91
2021/03/30 21:15:08;;;;;;;77.78;41.77;;;;;;;7.88;80.47;100195.21;4157690;84;21437;-92
2021/03/30 21:21:10;;;;;;;84.52;47.33;;;;;;;7.86;80.72;100188.72;3981865;87;22538;-93
2021/03/30 21:27:12;;;;;;;66.85;38.38;;;;;;;7.86;80.98;100188.72;4092162;84;21187;-90
2021/03/30 21:33:15;;;;;;;80.77;44.95;;;;;;;7.72;80.37;100188.73;4121818;84;21692;-91
2021/03/30 21:39:16;;;;;;;96.40;47.15;;;;;;;7.52;81.16;100194.32;4142084;84;21244;-93
2021/03/30 21:45:19;;;;;;;100.50;51.40;;;;;;;7.51;81.16;100190.56;4102893;84;21258;-91
2021/03/30 21:51:21;;;;;;;99.95;49.08;;;;;;;7.49;81.48;100189.52;4096704;84;21788;-94
2021/03/30 21:57:22;;;;;;;108.55;54.35;;;;;;;7.35;81.24;100200.38;4136924;84;21178;-91
2021/03/30 22:03:26;;;;;;;93.75;51.20;;;;;;;7.20;81.72;100189.45;4140036;84;21704;-93
2021/03/30 22:09:28;;;;;;;86.32;46.10;;;;;;;7.15;81.98;100195.06;4139525;84;21224;-92
2021/03/30 22:15:30;;;;;;;88.58;49.48;;;;;;;7.04;81.97;100195.16;4126674;84;21277;-91
2021/03/30 22:21:31;;;;;;;73.62;42.10;;;;;;;7.00;82.14;100187.97;4128313;84;21628;-92
2021/03/30 22:27:33;;;;;;;88.52;48.52;;;;;;;6.92;82.48;100192.27;4142386;84;21224;-92
2021/03/30 22:33:43;;;;;;;74.40;45.17;;;;;;;6.86;82.32;100194.92;4150720;84;21265;-93
2021/03/30 22:39:46;;;;;;;78.37;43.20;;;;;;;6.78;82.43;100196.30;4139931;84;21346;-90
2021/03/30 22:45:48;;;;;;;75.70;44.95;;;;;;;6.71;82.66;100200.86;4123713;84;21221;-91
2021/03/30 22:51:49;;;;;;;76.55;42.93;;;;;;;6.65;82.61;100200.78;4134926;84;21183;-91
2021/03/30 22:57:51;;;;;;;76.50;44.55;;;;;;;6.60;82.85;100200.13;4146340;83;21229;-92
2021/03/30 23:03:52;;;;;;;77.70;42.90;;;;;;;6.54;83.00;100202.77;4070647;85;22090;-91
2021/03/30 23:09:54;;;;;;;77.65;43.38;;;;;;;6.43;82.89;100196.84;4018905;87;21223;-92
2021/03/30 23:15:56;;;;;;;70.67;36.33;;;;;;;6.44;83.02;100188.14;4146651;84;21187;-91
2021/03/30 23:21:59;;;;;;;53.28;34.43;;;;;;;6.25;82.79;100196.56;4139274;83;21319;-92
2021/03/30 23:28:01;;;;;;;61.00;36.08;;;;;;;6.16;83.44;100203.91;3996538;87;21430;-93
2021/03/30 23:34:02;;;;;;;76.20;42.45;;;;;;;6.40;83.71;100199.63;4142933;84;21682;-93
2021/03/30 23:40:05;;;;;;;74.20;41.80;;;;;;;6.37;83.00;100186.67;4137261;84;21289;-90
2021/03/30 23:46:07;;;;;;;59.85;35.15;;;;;;;6.13;82.83;100186.33;4137754;83;21219;-92
2021/03/30 23:52:09;;;;;;;79.70;45.48;;;;;;;6.06;83.37;100189.27;4142309;84;21166;-91
2021/03/30 23:58:10;;;;;;;92.60;49.00;;;;;;;5.98;83.21;100188.11;4142807;84;21220;-92
